Time;durP1;ratioP1;P1;durP2;ratioP2;P2;SDS_P1;SDS_P2;PMS_P1;PMS_P2;Temp;Humidity;BMP_temperature;BMP_pressure;BME280_temperature;BME280_humidity;BME280_pressure;Samples;Min_cycle;Max_cycle;Signal;HPM_P1;HPM_P2
2023/05/26 00:02:06;;;;;;;3.10;1.73;;;10.90;99.90;;;;;;5003567;28;20624;-80
2023/05/26 00:04:33;;;;;;;3.47;1.70;;;10.80;99.90;;;;;;5049501;28;20051;-80
2023/05/26 00:07:00;;;;;;;7.13;1.80;;;10.80;99.90;;;;;;5056461;28;20053;-80
2023/05/26 00:09:27;;;;;;;5.43;2.05;;;10.70;99.90;;;;;;5023019;28;20077;-80
2023/05/26 00:11:54;;;;;;;3.60;1.80;;;10.70;99.90;;;;;;5015960;28;20488;-81
2023/05/26 00:14:22;;;;;;;6.85;2.28;;;10.70;99.90;;;;;;5033794;28;20401;-80
2023/05/26 00:16:49;;;;;;;5.90;2.00;;;10.60;99.90;;;;;;5021310;28;20061;-81
2023/05/26 00:19:18;;;;;;;7.15;2.35;;;10.60;99.90;;;;;;5039905;28;20052;-80
2023/05/26 00:21:45;;;;;;;5.53;2.35;;;10.50;99.90;;;;;;5056815;28;20060;-80
2023/05/26 00:24:13;;;;;;;5.00;1.95;;;10.50;99.90;;;;;;5034044;28;20106;-81
2023/05/26 00:26:40;;;;;;;6.35;2.00;;;10.40;99.90;;;;;;5005206;28;20467;-80
2023/05/26 00:29:07;;;;;;;4.78;2.03;;;10.40;99.90;;;;;;5040069;28;20392;-81
2023/05/26 00:31:55;;;;;;;4.97;1.90;;;10.40;99.90;;;;;;5056234;28;20048;-81
2023/05/26 00:34:22;;;;;;;5.65;2.17;;;10.40;99.90;;;;;;5055668;28;20048;-81
2023/05/26 00:36:49;;;;;;;4.75;1.90;;;10.50;99.90;;;;;;5053771;28;20563;-80
2023/05/26 00:39:16;;;;;;;2.90;1.60;;;10.40;99.90;;;;;;5020388;28;20406;-81
2023/05/26 00:41:43;;;;;;;5.63;2.00;;;10.40;99.90;;;;;;5013120;28;20049;-80
2023/05/26 00:44:10;;;;;;;4.50;1.95;;;10.50;99.90;;;;;;5036387;28;20628;-80
2023/05/26 00:46:37;;;;;;;6.70;1.85;;;10.50;99.90;;;;;;5025100;28;20072;-81
2023/05/26 00:49:04;;;;;;;4.80;1.83;;;10.40;99.90;;;;;;5027940;28;20044;-80
2023/05/26 00:51:32;;;;;;;6.78;2.33;;;10.40;99.90;;;;;;5021331;28;20850;-80
2023/05/26 00:53:59;;;;;;;3.97;1.67;;;10.40;99.90;;;;;;5031389;28;20110;-80
2023/05/26 00:56:27;;;;;;;7.20;1.85;;;10.40;99.90;;;;;;5034222;28;20052;-79
2023/05/26 00:58:55;;;;;;;6.10;2.70;;;10.40;99.90;;;;;;5017237;28;20049;-80
2023/05/26 01:01:22;;;;;;;5.53;1.88;;;10.40;99.90;;;;;;5023693;28;20461;-80
2023/05/26 01:03:49;;;;;;;4.35;1.58;;;10.40;99.90;;;;;;5053988;28;20048;-80
2023/05/26 01:06:17;;;;;;;7.00;2.42;;;10.40;99.90;;;;;;5056330;28;20856;-80
2023/05/26 01:08:43;;;;;;;6.35;2.13;;;10.40;99.90;;;;;;5033197;28;20053;-80
2023/05/26 01:11:22;;;;;;;4.88;1.95;;;10.40;99.90;;;;;;5032247;28;20049;-80
2023/05/26 01:14:25;;;;;;;5.70;1.92;;;10.40;99.90;;;;;;5047768;28;20048;-81
2023/05/26 01:17:03;;;;;;;3.70;1.85;;;10.40;99.90;;;;;;4957449;28;20106;-80
2023/05/26 01:19:54;;;;;;;8.02;2.50;;;10.40;99.90;;;;;;5008153;28;20492;-80
2023/05/26 01:22:37;;;;;;;4.40;1.75;;;10.40;99.90;;;;;;5025665;28;20389;-80
2023/05/26 01:25:22;;;;;;;4.40;1.92;;;10.50;99.90;;;;;;5061169;28;20135;-80
2023/05/26 01:28:12;;;;;;;4.55;1.90;;;10.50;99.90;;;;;;5059071;28;20080;-80
2023/05/26 01:30:39;;;;;;;4.57;1.90;;;10.50;99.90;;;;;;5039365;28;20465;-79
2023/05/26 01:33:06;;;;;;;5.32;2.90;;;10.60;99.90;;;;;;5041935;28;20047;-80
2023/05/26 01:35:34;;;;;;;5.50;1.92;;;10.50;99.90;;;;;;5038539;28;20492;-79
2023/05/26 01:38:01;;;;;;;5.00;1.90;;;10.60;99.90;;;;;;5041633;28;20049;-80
2023/05/26 01:40:28;;;;;;;5.40;1.98;;;10.70;99.90;;;;;;5017716;28;20098;-80
2023/05/26 01:43:03;;;;;;;5.40;2.08;;;10.70;99.90;;;;;;5020382;28;20056;-79
2023/05/26 01:45:34;;;;;;;4.97;1.95;;;10.70;99.90;;;;;;5027415;28;20048;-80
2023/05/26 01:48:02;;;;;;;5.30;1.83;;;10.70;99.90;;;;;;5009105;28;20045;-80
2023/05/26 01:50:35;;;;;;;5.03;2.03;;;10.80;99.90;;;;;;5039379;28;20160;-80
2023/05/26 01:53:06;;;;;;;5.35;1.85;;;10.80;99.90;;;;;;5045900;28;20098;-80
2023/05/26 01:55:34;;;;;;;7.88;3.35;;;10.80;99.90;;;;;;5039564;28;20580;-80
2023/05/26 01:58:01;;;;;;;5.88;1.77;;;10.80;99.90;;;;;;5018714;28;20045;-80
2023/05/26 02:00:28;;;;;;;5.97;2.05;;;10.90;99.90;;;;;;5038660;28;20491;-80
2023/05/26 02:02:55;;;;;;;7.38;2.13;;;10.90;99.90;;;;;;5058999;28;20521;-80
2023/05/26 02:05:22;;;;;;;6.00;2.20;;;10.90;99.90;;;;;;5027272;28;20056;-79
2023/05/26 02:07:51;;;;;;;6.13;2.25;;;10.90;99.90;;;;;;5024689;28;20049;-80
2023/05/26 02:10:17;;;;;;;4.38;1.70;;;10.90;99.90;;;;;;5053134;28;20098;-80
2023/05/26 02:12:45;;;;;;;5.97;1.92;;;11.00;99.90;;;;;;5041234;28;20059;-80
2023/05/26 02:15:11;;;;;;;6.47;2.63;;;10.90;99.90;;;;;;5026865;28;20049;-80
2023/05/26 02:17:40;;;;;;;7.10;2.15;;;10.90;99.90;;;;;;5009419;28;20068;-80
2023/05/26 02:20:09;;;;;;;5.88;2.28;;;10.80;99.90;;;;;;5050021;28;20127;-80
2023/05/26 02:22:36;;;;;;;5.78;2.58;;;10.80;99.90;;;;;;5014443;28;20049;-80
2023/05/26 02:25:03;;;;;;;5.05;2.25;;;10.90;99.90;;;;;;5042714;28;20048;-80
2023/05/26 02:27:30;;;;;;;4.07;1.92;;;10.80;99.90;;;;;;5026564;28;20052;-80
2023/05/26 02:29:57;;;;;;;6.78;2.30;;;10.90;99.90;;;;;;5027002;28;20539;-79
2023/05/26 02:32:25;;;;;;;5.25;2.05;;;10.90;99.90;;;;;;5039871;28;20056;-80
2023/05/26 02:34:52;;;;;;;5.82;2.05;;;10.90;99.90;;;;;;5036951;28;20052;-79
2023/05/26 02:37:19;;;;;;;4.72;2.17;;;10.90;99.90;;;;;;5013828;28;20512;-80
2023/05/26 02:39:46;;;;;;;2.88;1.33;;;10.90;99.90;;;;;;5047404;28;20109;-80
2023/05/26 02:42:13;;;;;;;4.97;2.30;;;10.90;99.90;;;;;;5061443;28;20131;-80
2023/05/26 02:44:40;;;;;;;4.72;2.05;;;10.90;99.90;;;;;;5033655;28;20059;-80
2023/05/26 02:47:07;;;;;;;5.95;2.20;;;10.90;99.90;;;;;;5060117;28;20060;-79
2023/05/26 02:49:34;;;;;;;6.70;2.35;;;10.90;99.90;;;;;;5022094;28;20041;-80
2023/05/26 02:52:01;;;;;;;5.95;2.40;;;10.90;99.90;;;;;;5021927;28;20064;-81
2023/05/26 02:54:28;;;;;;;4.90;1.90;;;10.80;99.90;;;;;;5061875;28;20091;-80
2023/05/26 02:56:55;;;;;;;4.15;1.70;;;10.80;99.90;;;;;;5057228;28;20044;-80
2023/05/26 02:59:22;;;;;;;5.03;1.85;;;10.80;99.90;;;;;;5042353;28;20041;-80
2023/05/26 03:01:49;;;;;;;6.63;2.47;;;10.80;99.90;;;;;;5042394;28;20057;-79
2023/05/26 03:04:16;;;;;;;5.18;2.15;;;10.90;99.90;;;;;;5057798;28;20446;-78
2023/05/26 03:06:43;;;;;;;6.68;2.42;;;10.80;99.90;;;;;;5010674;28;20152;-79
2023/05/26 03:09:10;;;;;;;5.05;2.38;;;10.90;99.90;;;;;;5038870;28;20049;-80
2023/05/26 03:11:36;;;;;;;6.55;2.95;;;10.90;99.90;;;;;;5023925;28;20053;-80
2023/05/26 03:14:04;;;;;;;5.35;2.28;;;10.80;99.90;;;;;;5058697;28;20514;-79
2023/05/26 03:16:31;;;;;;;6.15;2.25;;;10.70;99.90;;;;;;5032976;28;20080;-80
2023/05/26 03:18:58;;;;;;;6.18;2.95;;;10.80;99.90;;;;;;5016047;28;20124;-80
2023/05/26 03:21:25;;;;;;;5.82;2.13;;;10.70;99.90;;;;;;5044272;28;20076;-79
2023/05/26 03:24:12;;;;;;;5.35;2.10;;;10.70;99.90;;;;;;5034072;28;20394;-79
2023/05/26 03:26:39;;;;;;;4.55;2.00;;;10.70;99.90;;;;;;5038525;28;20052;-79
2023/05/26 03:29:06;;;;;;;4.90;1.90;;;10.70;99.90;;;;;;5040906;28;20060;-80
2023/05/26 03:31:35;;;;;;;5.15;2.47;;;10.70;99.90;;;;;;5042503;28;20044;-80
2023/05/26 03:34:01;;;;;;;7.45;2.70;;;10.70;99.90;;;;;;5058831;28;20056;-80
2023/05/26 03:36:29;;;;;;;6.40;2.25;;;10.70;99.90;;;;;;5011799;28;20048;-80
2023/05/26 03:38:55;;;;;;;5.63;2.13;;;10.60;99.90;;;;;;5045317;28;20106;-79
2023/05/26 03:41:22;;;;;;;7.18;2.38;;;10.70;99.90;;;;;;5023595;28;20076;-80
2023/05/26 03:43:51;;;;;;;5.60;2.22;;;10.70;99.90;;;;;;5022442;28;20186;-79
2023/05/26 03:46:18;;;;;;;7.00;2.97;;;10.60;99.90;;;;;;5042266;28;20052;-80
2023/05/26 03:48:45;;;;;;;7.18;2.95;;;10.60;99.90;;;;;;5023186;28;20654;-80
2023/05/26 03:51:12;;;;;;;3.97;1.98;;;10.50;99.90;;;;;;5057130;28;20095;-79
2023/05/26 03:53:39;;;;;;;6.03;2.45;;;10.50;99.90;;;;;;5043296;28;20048;-81
2023/05/26 03:56:06;;;;;;;5.85;2.42;;;10.50;99.90;;;;;;5052304;28;20118;-80
2023/05/26 03:58:33;;;;;;;7.15;2.45;;;10.50;99.90;;;;;;5046914;28;20080;-80
2023/05/26 04:01:00;;;;;;;4.50;2.20;;;10.60;99.90;;;;;;5018320;28;20624;-80
2023/05/26 04:03:27;;;;;;;5.43;2.22;;;10.60;99.90;;;;;;5038646;28;20049;-80
2023/05/26 04:05:54;;;;;;;5.60;2.38;;;10.60;99.90;;;;;;5025641;28;20044;-80
2023/05/26 04:08:21;;;;;;;4.57;2.08;;;10.60;99.90;;;;;;5042905;28;20094;-80
2023/05/26 04:10:48;;;;;;;3.92;1.70;;;10.60;99.90;;;;;;5013883;28;20621;-80
2023/05/26 04:13:15;;;;;;;5.45;1.70;;;10.70;99.90;;;;;;5042508;28;20048;-79
2023/05/26 04:15:43;;;;;;;4.63;2.10;;;10.70;99.90;;;;;;5039185;28;20040;-79
2023/05/26 04:18:10;;;;;;;5.43;2.33;;;10.70;99.90;;;;;;5038621;28;20597;-79
2023/05/26 04:20:37;;;;;;;5.68;2.30;;;10.80;99.90;;;;;;5030376;28;20056;-81
2023/05/26 04:23:04;;;;;;;5.20;2.00;;;10.80;99.90;;;;;;5037515;28;20131;-80
2023/05/26 04:25:32;;;;;;;6.22;2.08;;;10.80;99.90;;;;;;5024793;28;20053;-80
2023/05/26 04:27:59;;;;;;;4.15;1.85;;;10.70;99.90;;;;;;5041221;28;20052;-80
2023/05/26 04:30:25;;;;;;;3.35;1.60;;;10.80;99.90;;;;;;5029097;28;20056;-80
2023/05/26 04:32:55;;;;;;;4.80;1.95;;;10.90;99.90;;;;;;5023007;28;20060;-79
2023/05/26 04:35:22;;;;;;;3.00;1.58;;;10.90;99.90;;;;;;5041227;28;20171;-80
2023/05/26 04:37:50;;;;;;;5.60;2.00;;;10.90;99.90;;;;;;5027676;28;20048;-79
2023/05/26 04:40:18;;;;;;;3.35;1.38;;;10.90;99.90;;;;;;5030342;28;20403;-80
2023/05/26 04:42:48;;;;;;;3.20;1.70;;;10.90;99.90;;;;;;5035039;28;20063;-79
2023/05/26 04:45:15;;;;;;;6.80;2.25;;;10.90;99.90;;;;;;5054319;28;20688;-80
2023/05/26 04:47:42;;;;;;;7.72;2.45;;;11.00;99.90;;;;;;5037584;28;20440;-80
2023/05/26 04:50:16;;;;;;;4.85;2.08;;;11.00;99.90;;;;;;5028957;28;20055;-81
2023/05/26 04:52:43;;;;;;;4.90;1.88;;;11.10;99.90;;;;;;5024342;28;20092;-80
2023/05/26 04:55:10;;;;;;;4.18;1.42;;;11.10;99.90;;;;;;5026811;28;20590;-80
2023/05/26 04:57:37;;;;;;;4.32;1.73;;;11.20;99.90;;;;;;5019695;28;20388;-80
2023/05/26 05:00:10;;;;;;;3.53;1.70;;;11.20;99.90;;;;;;5053288;28;20063;-80
2023/05/26 05:02:36;;;;;;;4.03;1.45;;;11.20;99.90;;;;;;5044512;28;20052;-80
2023/05/26 05:05:04;;;;;;;3.15;1.70;;;11.30;99.90;;;;;;5043099;28;20157;-79
2023/05/26 05:07:31;;;;;;;3.92;2.00;;;11.30;99.90;;;;;;5015920;28;20103;-79
2023/05/26 05:09:58;;;;;;;7.15;2.05;;;11.30;99.90;;;;;;5029836;28;20489;-79
2023/05/26 05:12:25;;;;;;;5.93;2.25;;;11.30;99.90;;;;;;5042858;28;20045;-80
2023/05/26 05:14:52;;;;;;;3.35;1.73;;;11.30;99.90;;;;;;5013329;28;20057;-80
2023/05/26 05:17:18;;;;;;;4.40;2.03;;;11.30;99.90;;;;;;5024820;28;20056;-81
2023/05/26 05:19:45;;;;;;;4.38;1.95;;;11.40;99.90;;;;;;5014997;28;20870;-80
2023/05/26 05:22:13;;;;;;;4.97;1.75;;;11.40;99.90;;;;;;5021649;28;20065;-81
2023/05/26 05:24:40;;;;;;;4.82;2.25;;;11.50;99.90;;;;;;5036567;28;20036;-81
2023/05/26 05:27:06;;;;;;;4.95;2.20;;;11.50;99.90;;;;;;5028853;28;20049;-81
2023/05/26 05:29:34;;;;;;;5.35;2.70;;;11.60;99.90;;;;;;5034656;28;20107;-80
2023/05/26 05:32:01;;;;;;;4.68;2.55;;;11.70;99.90;;;;;;5036709;28;20068;-80
2023/05/26 05:34:28;;;;;;;5.90;2.40;;;11.70;99.90;;;;;;5015504;28;20570;-81
2023/05/26 05:36:55;;;;;;;6.53;2.80;;;11.70;99.90;;;;;;5044618;28;20049;-80
2023/05/26 05:39:22;;;;;;;5.18;1.85;;;11.70;99.90;;;;;;5042915;28;20126;-81
2023/05/26 05:41:49;;;;;;;5.18;2.30;;;11.80;99.90;;;;;;5041120;28;20586;-80
2023/05/26 05:44:16;;;;;;;4.65;2.60;;;11.90;99.90;;;;;;5050200;28;20570;-80
2023/05/26 05:46:43;;;;;;;5.07;2.10;;;11.90;99.90;;;;;;5035219;28;20412;-80
2023/05/26 05:49:11;;;;;;;4.75;1.98;;;12.00;99.90;;;;;;5018111;28;20098;-80
2023/05/26 05:51:38;;;;;;;5.97;2.20;;;12.10;99.90;;;;;;5037006;28;20112;-81
2023/05/26 05:54:06;;;;;;;3.78;1.90;;;12.10;99.90;;;;;;5020763;28;20095;-80
2023/05/26 05:56:33;;;;;;;3.50;1.77;;;12.20;99.90;;;;;;5045365;28;20061;-81
2023/05/26 05:59:00;;;;;;;5.80;2.33;;;12.20;99.90;;;;;;5042938;28;20068;-80
2023/05/26 06:01:27;;;;;;;4.13;2.20;;;12.20;99.90;;;;;;5038791;28;20104;-80
2023/05/26 06:03:54;;;;;;;3.47;1.75;;;12.20;99.90;;;;;;5033312;28;20219;-81
2023/05/26 06:06:21;;;;;;;3.47;1.95;;;12.20;99.90;;;;;;5019773;28;20084;-81
2023/05/26 06:08:48;;;;;;;5.03;2.28;;;12.20;99.90;;;;;;5054369;28;20227;-81
2023/05/26 06:11:15;;;;;;;6.25;2.05;;;12.30;99.90;;;;;;5045184;28;20040;-85
2023/05/26 06:13:42;;;;;;;6.65;2.28;;;12.20;99.90;;;;;;5033002;28;20133;-75
2023/05/26 06:16:09;;;;;;;6.93;2.28;;;12.20;99.90;;;;;;5015264;28;20076;-75
2023/05/26 06:18:35;;;;;;;7.07;2.53;;;12.20;99.90;;;;;;5038064;28;20052;-75
2023/05/26 06:21:02;;;;;;;6.60;2.55;;;12.30;99.90;;;;;;5029709;28;20059;-75
2023/05/26 06:23:30;;;;;;;5.38;2.45;;;12.30;99.90;;;;;;5042262;28;20049;-75
2023/05/26 06:25:56;;;;;;;7.10;2.50;;;12.40;99.90;;;;;;5025250;28;20052;-76
2023/05/26 06:28:23;;;;;;;6.53;2.60;;;12.40;99.90;;;;;;5038500;28;20061;-76
2023/05/26 06:30:50;;;;;;;6.60;2.20;;;12.40;99.90;;;;;;5036685;28;20135;-76
2023/05/26 06:33:17;;;;;;;8.38;2.33;;;12.60;99.90;;;;;;5055169;28;20048;-76
2023/05/26 06:35:43;;;;;;;4.28;2.13;;;12.60;99.90;;;;;;5057633;28;20129;-76
2023/05/26 06:38:10;;;;;;;4.85;2.58;;;12.60;99.90;;;;;;5056077;28;20143;-76
2023/05/26 06:40:37;;;;;;;8.52;2.72;;;12.70;99.90;;;;;;5057971;28;20173;-75
2023/05/26 06:43:04;;;;;;;5.57;2.35;;;12.70;99.90;;;;;;5057892;28;20128;-76
2023/05/26 06:45:31;;;;;;;4.82;2.00;;;12.70;99.90;;;;;;5058748;28;20460;-76
2023/05/26 06:47:58;;;;;;;5.05;2.22;;;12.70;99.90;;;;;;5049482;28;20699;-76
2023/05/26 06:50:25;;;;;;;5.68;2.35;;;12.70;99.90;;;;;;5050248;28;20049;-76
2023/05/26 06:52:52;;;;;;;5.20;1.95;;;12.80;99.90;;;;;;5029261;28;20061;-76
2023/05/26 06:55:19;;;;;;;9.43;2.80;;;12.90;99.90;;;;;;5036877;28;20115;-76
2023/05/26 06:57:46;;;;;;;5.90;2.38;;;12.80;99.90;;;;;;5048480;28;20474;-75
2023/05/26 07:00:13;;;;;;;4.95;2.63;;;12.80;99.90;;;;;;5033885;28;20045;-76
2023/05/26 07:02:40;;;;;;;6.28;2.78;;;12.90;99.90;;;;;;5043140;28;20053;-75
2023/05/26 07:05:08;;;;;;;4.20;1.67;;;13.00;99.90;;;;;;5038271;28;20049;-74
2023/05/26 07:07:35;;;;;;;5.45;2.10;;;13.10;99.90;;;;;;5053567;28;20049;-75
2023/05/26 07:10:02;;;;;;;6.35;2.75;;;13.20;99.90;;;;;;5036444;28;20554;-74
2023/05/26 07:12:29;;;;;;;4.20;2.15;;;13.20;99.90;;;;;;5051279;28;20064;-74
2023/05/26 07:14:56;;;;;;;7.90;2.65;;;13.30;99.90;;;;;;5041224;28;20097;-74
2023/05/26 07:17:23;;;;;;;6.60;2.40;;;13.20;99.90;;;;;;5024043;28;20037;-75
2023/05/26 07:19:50;;;;;;;5.18;2.15;;;13.20;99.90;;;;;;5054408;28;20052;-74
2023/05/26 07:22:16;;;;;;;5.00;2.65;;;13.30;99.90;;;;;;5049234;28;20068;-74
2023/05/26 07:24:43;;;;;;;9.25;2.92;;;13.30;99.90;;;;;;5026460;28;20048;-74
2023/05/26 07:27:10;;;;;;;5.97;2.72;;;13.20;99.90;;;;;;5036920;28;20777;-74
2023/05/26 07:29:37;;;;;;;6.13;2.35;;;13.30;99.90;;;;;;5031803;28;20052;-74
2023/05/26 07:32:04;;;;;;;6.40;2.70;;;13.50;99.90;;;;;;5045750;28;20049;-74
2023/05/26 07:34:31;;;;;;;7.15;2.50;;;13.40;99.90;;;;;;5048016;28;20048;-74
2023/05/26 07:36:58;;;;;;;7.90;2.60;;;13.50;99.90;;;;;;5026542;28;20462;-74
2023/05/26 07:39:25;;;;;;;6.88;2.55;;;13.70;99.90;;;;;;5015546;28;20036;-75
2023/05/26 07:41:52;;;;;;;6.97;2.80;;;13.70;99.90;;;;;;5039085;28;20130;-75
2023/05/26 07:44:19;;;;;;;6.53;2.50;;;13.80;99.90;;;;;;5031244;28;20404;-75
2023/05/26 07:46:45;;;;;;;5.68;2.20;;;13.90;99.90;;;;;;5049277;28;20506;-75
2023/05/26 07:49:13;;;;;;;3.40;1.75;;;13.90;99.90;;;;;;5045221;28;20044;-75
2023/05/26 07:51:40;;;;;;;4.55;2.33;;;13.90;99.90;;;;;;5046919;28;20074;-75
2023/05/26 07:54:07;;;;;;;7.07;2.60;;;14.00;99.90;;;;;;5047732;28;20063;-75
2023/05/26 07:56:34;;;;;;;6.30;2.78;;;14.10;99.90;;;;;;5037566;28;20053;-75
2023/05/26 07:59:02;;;;;;;3.50;1.77;;;14.00;99.90;;;;;;5042672;28;20121;-75
2023/05/26 08:01:28;;;;;;;6.53;2.35;;;14.00;99.90;;;;;;5046725;28;20048;-75
2023/05/26 08:03:58;;;;;;;5.35;2.22;;;14.00;99.90;;;;;;5039500;28;20103;-76
2023/05/26 08:06:26;;;;;;;6.97;2.75;;;14.10;99.90;;;;;;5025227;28;20145;-75
2023/05/26 08:08:53;;;;;;;4.40;2.20;;;14.00;99.90;;;;;;5034589;28;20496;-74
2023/05/26 08:11:22;;;;;;;7.88;2.88;;;14.10;99.90;;;;;;5045780;28;20052;-74
2023/05/26 08:13:50;;;;;;;4.35;2.33;;;14.20;99.90;;;;;;5035908;28;20068;-76
2023/05/26 08:16:16;;;;;;;6.47;2.10;;;14.20;99.90;;;;;;5056847;28;20113;-75
2023/05/26 08:18:43;;;;;;;9.13;2.53;;;14.30;99.90;;;;;;5044439;28;20513;-73
2023/05/26 08:21:10;;;;;;;6.28;2.45;;;14.10;99.90;;;;;;5046561;28;20105;-74
2023/05/26 08:23:37;;;;;;;5.65;2.35;;;14.00;99.90;;;;;;5047886;28;20059;-77
2023/05/26 08:26:05;;;;;;;5.25;2.05;;;14.00;99.90;;;;;;5018939;28;20057;-74
2023/05/26 08:28:32;;;;;;;6.32;2.42;;;14.10;99.90;;;;;;5036121;28;20037;-74
2023/05/26 08:30:59;;;;;;;6.68;2.42;;;14.20;99.90;;;;;;5040166;28;20059;-75
2023/05/26 08:33:26;;;;;;;8.43;2.67;;;14.30;99.90;;;;;;5036891;28;20147;-74
2023/05/26 08:35:52;;;;;;;6.95;2.80;;;14.30;99.90;;;;;;5025221;28;20458;-74
2023/05/26 08:38:19;;;;;;;5.45;2.38;;;14.20;99.90;;;;;;5044925;28;20445;-74
2023/05/26 08:40:47;;;;;;;6.50;2.30;;;14.10;99.90;;;;;;5035233;28;20060;-74
2023/05/26 08:43:14;;;;;;;8.05;2.53;;;14.20;99.90;;;;;;5043553;28;20966;-74
2023/05/26 08:45:41;;;;;;;4.93;2.10;;;14.30;99.90;;;;;;5055104;28;20487;-74
2023/05/26 08:48:09;;;;;;;5.60;2.33;;;14.40;99.90;;;;;;5047101;28;20589;-74
2023/05/26 08:50:36;;;;;;;6.25;2.42;;;14.40;99.90;;;;;;5019176;28;20055;-74
2023/05/26 08:53:03;;;;;;;8.60;2.47;;;14.40;99.90;;;;;;5013596;28;20642;-81
2023/05/26 08:55:32;;;;;;;7.43;2.70;;;14.40;99.90;;;;;;5033200;28;20132;-81
2023/05/26 08:58:00;;;;;;;7.00;3.22;;;14.40;99.90;;;;;;5022176;28;20447;-81
2023/05/26 09:00:30;;;;;;;6.00;3.00;;;14.40;99.90;;;;;;5030207;28;20800;-82
2023/05/26 09:02:57;;;;;;;8.23;3.22;;;14.40;99.90;;;;;;5053590;28;20110;-82
2023/05/26 09:05:24;;;;;;;7.68;3.10;;;14.50;99.90;;;;;;5022274;28;20448;-81
2023/05/26 09:07:51;;;;;;;6.30;2.20;;;14.50;99.90;;;;;;5044535;28;20126;-81
2023/05/26 09:10:25;;;;;;;3.78;2.28;;;14.60;99.90;;;;;;5015498;28;20063;-81
2023/05/26 09:13:23;;;;;;;8.85;3.08;;;14.60;99.90;;;;;;5051292;28;20053;-82
2023/05/26 09:15:52;;;;;;;10.55;3.33;;;14.60;99.90;;;;;;5038751;28;20057;-81
2023/05/26 09:18:28;;;;;;;6.43;2.83;;;14.70;99.90;;;;;;5017813;28;20049;-82
2023/05/26 09:20:55;;;;;;;6.65;2.22;;;14.70;99.90;;;;;;5023470;28;20143;-81
2023/05/26 09:23:22;;;;;;;5.80;2.50;;;14.90;99.90;;;;;;5017428;28;20570;-81
2023/05/26 09:25:50;;;;;;;7.40;2.60;;;15.00;99.90;;;;;;5006603;28;20055;-82
2023/05/26 09:28:20;;;;;;;6.00;2.90;;;15.10;99.90;;;;;;5018204;28;20452;-81
2023/05/26 09:30:47;;;;;;;6.30;2.50;;;15.20;99.90;;;;;;5030710;28;20429;-81
2023/05/26 09:33:16;;;;;;;5.60;2.78;;;15.30;99.90;;;;;;5035776;28;20078;-82
2023/05/26 09:35:49;;;;;;;5.35;2.50;;;15.30;99.90;;;;;;5045955;28;20072;-81
2023/05/26 09:38:18;;;;;;;7.43;2.75;;;15.40;99.90;;;;;;5033501;28;20064;-82
2023/05/26 09:40:49;;;;;;;6.07;2.72;;;15.40;99.90;;;;;;5037621;28;20414;-81
2023/05/26 09:43:19;;;;;;;7.18;2.53;;;15.50;99.90;;;;;;5034363;28;20057;-81
2023/05/26 09:45:47;;;;;;;8.43;2.60;;;15.50;99.90;;;;;;5029722;28;20732;-81
2023/05/26 09:48:14;;;;;;;6.50;2.67;;;15.50;99.90;;;;;;5051299;28;20448;-80
2023/05/26 09:50:41;;;;;;;8.30;2.80;;;15.60;99.90;;;;;;5032614;28;20045;-81
2023/05/26 09:53:09;;;;;;;5.82;2.50;;;15.70;99.90;;;;;;5036325;28;20221;-82
2023/05/26 09:55:38;;;;;;;5.60;2.72;;;15.80;99.90;;;;;;5024782;28;20048;-81
2023/05/26 09:58:09;;;;;;;8.48;2.47;;;15.80;99.90;;;;;;5021254;28;20045;-80
2023/05/26 10:00:40;;;;;;;7.88;2.67;;;15.80;99.90;;;;;;5025504;28;20513;-81
2023/05/26 10:03:07;;;;;;;6.45;2.25;;;15.90;99.90;;;;;;5030294;28;20052;-80
2023/05/26 10:05:39;;;;;;;6.32;2.53;;;16.00;99.90;;;;;;5054186;28;20044;-80
2023/05/26 10:08:06;;;;;;;6.97;3.03;;;16.00;99.00;;;;;;5041430;28;20049;-80
2023/05/26 10:10:33;;;;;;;5.70;3.15;;;16.10;99.40;;;;;;5028858;28;20141;-81
2023/05/26 10:13:02;;;;;;;8.35;3.15;;;16.10;98.30;;;;;;5042222;28;20067;-80
2023/05/26 10:15:28;;;;;;;6.25;2.33;;;16.20;98.70;;;;;;5021015;28;20129;-80
2023/05/26 10:17:58;;;;;;;6.57;2.17;;;16.30;99.50;;;;;;5031720;28;20472;-80
2023/05/26 10:20:25;;;;;;;4.57;1.85;;;16.40;99.30;;;;;;5008635;28;20064;-80
2023/05/26 10:23:04;;;;;;;5.45;2.65;;;16.60;99.30;;;;;;5022129;28;20060;-80
2023/05/26 10:25:53;;;;;;;4.70;2.10;;;16.70;98.80;;;;;;5021955;28;20201;-79
2023/05/26 10:28:43;;;;;;;7.07;2.45;;;16.80;98.60;;;;;;5024914;28;20053;-80
2023/05/26 10:31:11;;;;;;;5.60;2.60;;;16.80;97.50;;;;;;5043415;28;20052;-80
2023/05/26 10:33:42;;;;;;;4.13;2.20;;;17.00;97.90;;;;;;5017627;28;20091;-78
2023/05/26 10:36:13;;;;;;;6.40;2.22;;;16.90;97.90;;;;;;5028536;28;20090;-78
2023/05/26 10:38:44;;;;;;;5.93;2.47;;;16.90;97.70;;;;;;5044400;28;20159;-77
2023/05/26 10:41:12;;;;;;;5.60;1.90;;;17.00;97.40;;;;;;5022664;28;20072;-78
2023/05/26 10:43:39;;;;;;;6.35;2.50;;;17.10;97.60;;;;;;5051842;28;20145;-78
2023/05/26 10:46:06;;;;;;;4.68;2.22;;;17.20;96.70;;;;;;5053366;28;20059;-78
2023/05/26 10:48:36;;;;;;;5.80;2.10;;;17.20;97.50;;;;;;5037863;28;20128;-78
2023/05/26 10:51:04;;;;;;;4.63;1.95;;;17.40;97.40;;;;;;5051411;28;20065;-79
2023/05/26 10:53:43;;;;;;;5.10;2.30;;;17.50;96.50;;;;;;5041855;28;20080;-78
2023/05/26 10:56:12;;;;;;;4.43;2.13;;;17.60;97.30;;;;;;5053876;28;20052;-79
2023/05/26 10:58:49;;;;;;;4.85;2.60;;;17.70;97.90;;;;;;5040435;28;20548;-78
2023/05/26 11:01:27;;;;;;;5.38;2.50;;;18.10;97.20;;;;;;5045298;28;20048;-78
2023/05/26 11:04:08;;;;;;;8.02;2.72;;;18.10;96.80;;;;;;5044989;28;20049;-79
2023/05/26 11:06:52;;;;;;;8.25;2.67;;;18.10;96.40;;;;;;5042886;28;20480;-78
2023/05/26 11:09:22;;;;;;;;;;;18.30;96.20;;;;;;5040255;28;20246;-78
2023/05/26 11:11:57;;;;;;;5.43;2.53;;;18.50;96.20;;;;;;5050856;28;20027;-78
2023/05/26 11:14:47;;;;;;;4.03;2.17;;;18.50;95.80;;;;;;5028290;28;20053;-79
2023/05/26 11:17:14;;;;;;;6.78;2.45;;;18.70;95.40;;;;;;5045203;28;20057;-78
2023/05/26 11:19:42;;;;;;;5.82;2.33;;;18.90;94.00;;;;;;5039497;28;20139;-79
2023/05/26 11:22:10;;;;;;;6.43;2.53;;;19.00;94.80;;;;;;5053382;28;20048;-79
2023/05/26 11:24:36;;;;;;;5.47;2.25;;;18.90;94.70;;;;;;5037191;28;20584;-78
2023/05/26 11:27:05;;;;;;;4.97;2.15;;;19.20;94.40;;;;;;5051825;28;20049;-79
2023/05/26 11:29:32;;;;;;;4.60;2.20;;;19.50;94.10;;;;;;5027396;28;20052;-79
2023/05/26 11:31:59;;;;;;;4.90;2.60;;;19.80;94.50;;;;;;5015703;28;20529;-82
2023/05/26 11:34:26;;;;;;;4.65;2.53;;;19.80;94.20;;;;;;5051355;28;20056;-80
2023/05/26 11:36:53;;;;;;;4.40;2.33;;;20.00;94.60;;;;;;5046393;28;20457;-79
2023/05/26 11:39:21;;;;;;;6.55;2.20;;;20.20;93.30;;;;;;5019548;28;20473;-81
2023/05/26 11:41:49;;;;;;;6.75;2.63;;;20.10;93.80;;;;;;5038728;28;20049;-80
2023/05/26 11:44:16;;;;;;;7.10;2.80;;;20.10;93.70;;;;;;5035871;28;20044;-80
2023/05/26 11:46:44;;;;;;;4.97;2.60;;;20.20;93.00;;;;;;5030483;28;20137;-79
2023/05/26 11:49:15;;;;;;;5.85;2.80;;;20.20;92.90;;;;;;5022152;28;20045;-80
2023/05/26 11:51:46;;;;;;;5.00;2.28;;;20.10;93.30;;;;;;5051417;28;20052;-81
2023/05/26 11:54:13;;;;;;;5.82;2.55;;;20.40;93.20;;;;;;5028989;28;20084;-80
2023/05/26 11:56:42;;;;;;;4.88;2.33;;;20.40;92.70;;;;;;5043412;28;20398;-81
2023/05/26 11:59:09;;;;;;;7.28;3.03;;;20.60;92.60;;;;;;5042616;28;20498;-79
2023/05/26 12:01:36;;;;;;;5.75;2.92;;;20.90;92.90;;;;;;5046350;28;20083;-79
2023/05/26 12:04:04;;;;;;;4.78;2.10;;;21.00;92.30;;;;;;5054691;28;20828;-79
2023/05/26 12:06:31;;;;;;;5.10;2.25;;;21.00;91.20;;;;;;5044775;28;20048;-81
2023/05/26 12:09:02;;;;;;;6.00;2.85;;;21.10;91.90;;;;;;5062616;28;20052;-80
2023/05/26 12:11:29;;;;;;;3.90;2.50;;;21.30;91.00;;;;;;5038290;28;20052;-80
2023/05/26 12:14:06;;;;;;;3.25;1.83;;;21.60;91.50;;;;;;5052711;28;20140;-79
2023/05/26 12:16:36;;;;;;;4.43;1.80;;;21.80;90.80;;;;;;5046905;28;20052;-81
2023/05/26 12:19:07;;;;;;;6.00;2.65;;;21.90;91.10;;;;;;5051286;28;20049;-82
2023/05/26 12:21:40;;;;;;;8.25;2.83;;;21.90;90.50;;;;;;5015435;28;20104;-82
2023/05/26 12:24:08;;;;;;;3.92;1.95;;;22.10;90.90;;;;;;5057315;28;20091;-83
2023/05/26 12:26:34;;;;;;;4.20;2.35;;;22.20;90.60;;;;;;5031708;28;20045;-84
2023/05/26 12:29:11;;;;;;;4.53;2.33;;;22.40;90.80;;;;;;5040657;28;20040;-84
2023/05/26 12:31:51;;;;;;;3.92;2.22;;;22.40;90.10;;;;;;5041519;28;20135;-84
2023/05/26 12:34:27;;;;;;;4.55;2.50;;;22.40;90.30;;;;;;5043268;28;20064;-84
2023/05/26 12:36:54;;;;;;;4.57;2.45;;;22.60;87.80;;;;;;5037643;28;20057;-84
2023/05/26 12:39:21;;;;;;;4.50;2.03;;;22.90;88.40;;;;;;5041969;28;20056;-83
2023/05/26 12:41:48;;;;;;;4.63;2.45;;;23.20;87.90;;;;;;5048337;28;20048;-80
2023/05/26 12:44:15;;;;;;;7.03;2.47;;;23.60;87.60;;;;;;5024342;28;20080;-80
2023/05/26 12:46:44;;;;;;;4.43;2.17;;;23.40;86.60;;;;;;5019338;28;20064;-79
2023/05/26 12:49:11;;;;;;;4.78;2.45;;;23.60;85.40;;;;;;5019646;28;20063;-80
2023/05/26 12:51:39;;;;;;;4.22;2.35;;;23.80;85.80;;;;;;5023411;28;20103;-80
2023/05/26 12:54:06;;;;;;;3.35;2.38;;;24.00;85.00;;;;;;5055757;28;20100;-81
2023/05/26 12:56:33;;;;;;;4.40;2.45;;;24.00;84.80;;;;;;5041485;28;20101;-80